首页
METAR-TAF:

METAR-TAF

机场 :

Alma, 密歇根州, 美国

纬度: 43-19-19N, 经度: 084-41-16W, 海拔: 229米

当前天气观测

该预报发布于17分钟前的03:55 UTC
风速3节,风向南转西南
温度 -10°C
湿度 85%
气压 1034 hPa
能見度: 16.1公里
天空无云

METAR: KAMN 120355Z AUTO 20003KT 10SM CLR M10/M12 A3053 RMK AO2 T11021123

时间: 23:12 (04:12 UTC)


TAF: 丢失

超过4000个机场的气象观测和天气预报(METAR&TAF报告)。

可查询的气象台以黄色和红色小点在地图上表示。

将鼠标移到小点上方,可查看气象台名称。

然后点击查看天气观测和预报。

如需切换地图:点击带黑十字的绿色按钮放大地图;点击带横线的绿色按钮缩小地图;或者点击绿色箭头查看邻近地区的地图。


METAR-TAF: